createdAt,value
2019-04-27T00:03:13.216Z,4.07
2019-04-27T00:08:38.844Z,3.73
2019-04-27T00:13:41.689Z,3.83
2019-04-27T00:19:03.948Z,4.43
2019-04-27T00:24:07.816Z,4.47
2019-04-27T00:29:14.081Z,4.40
2019-04-27T00:34:17.886Z,4.30
2019-04-27T00:39:29.491Z,4.33
2019-04-27T00:44:33.855Z,4.20
2019-04-27T00:49:37.671Z,4.30
2019-04-27T00:54:41.478Z,4.17
2019-04-27T01:00:05.164Z,4.00
2019-04-27T01:05:29.326Z,4.07
2019-04-27T01:10:33.564Z,3.90
2019-04-27T01:15:37.384Z,3.90
2019-04-27T01:20:41.176Z,4.80
2019-04-27T01:26:03.872Z,4.40
2019-04-27T01:31:10.165Z,3.50
2019-04-27T01:36:13.868Z,4.60
2019-04-27T01:41:19.136Z,3.90
2019-04-27T01:46:22.910Z,4.27
2019-04-27T01:51:26.578Z,3.97
2019-04-27T01:56:30.310Z,3.47
2019-04-27T02:01:41.969Z,3.50
2019-04-27T02:06:48.717Z,4.37
2019-04-27T02:11:52.615Z,3.90
2019-04-27T02:16:56.331Z,4.17
2019-04-27T02:21:59.998Z,3.53
2019-04-27T02:27:03.671Z,3.87
2019-04-27T02:32:23.763Z,3.83
2019-04-27T02:37:30.200Z,4.40
2019-04-27T02:42:42.230Z,3.80
2019-04-27T02:47:46.308Z,4.07
2019-04-27T02:52:50.277Z,3.83
2019-04-27T02:57:54.054Z,3.90
2019-04-27T03:03:02.515Z,4.10
2019-04-27T03:08:06.187Z,3.83
2019-04-27T03:13:20.067Z,4.07
2019-04-27T03:18:45.904Z,4.00
2019-04-27T03:23:50.194Z,3.90
2019-04-27T03:28:54.371Z,3.53
2019-04-27T03:34:00.277Z,4.07
2019-04-27T03:39:03.758Z,4.57
2019-04-27T03:44:09.463Z,3.33
2019-04-27T03:49:28.185Z,4.00
2019-04-27T03:54:50.438Z,4.30
2019-04-27T04:00:06.008Z,3.70
2019-04-27T04:05:10.045Z,3.80
2019-04-27T04:10:14.135Z,4.70
2019-04-27T04:15:26.758Z,3.87
2019-04-27T04:20:30.714Z,4.30
2019-04-27T04:25:34.527Z,4.10
2019-04-27T04:30:40.218Z,4.07
2019-04-27T04:35:44.083Z,4.70
2019-04-27T04:40:53.728Z,4.00
2019-04-27T04:46:16.655Z,4.00
2019-04-27T04:51:20.360Z,3.80
2019-04-27T04:56:24.047Z,4.20
2019-04-27T05:01:29.949Z,4.27
2019-04-27T05:06:33.327Z,3.80
2019-04-27T05:11:37.078Z,4.43
2019-04-27T05:16:40.845Z,4.00
2019-04-27T05:21:44.507Z,4.60
2019-04-27T05:26:48.805Z,4.93
2019-04-27T05:31:52.733Z,3.90
2019-04-27T05:36:56.503Z,3.80
2019-04-27T05:42:00.202Z,4.00
2019-04-27T05:47:21.501Z,4.47
2019-04-27T05:52:31.409Z,3.13
2019-04-27T05:57:35.517Z,4.30
2019-04-27T06:02:39.811Z,3.93
2019-04-27T06:07:43.789Z,4.80
2019-04-27T06:12:48.582Z,4.13
2019-04-27T06:17:52.463Z,4.40
2019-04-27T06:22:56.237Z,4.80
2019-04-27T06:27:59.963Z,4.50
2019-04-27T06:33:03.804Z,4.60
2019-04-27T06:38:07.527Z,4.23
2019-04-27T06:43:12.578Z,4.70
2019-04-27T06:48:16.379Z,4.07
2019-04-27T06:53:20.211Z,4.50
2019-04-27T06:58:23.988Z,4.90
2019-04-27T07:03:28.941Z,8.87
2019-04-27T07:08:33.024Z,7.00
2019-04-27T07:13:36.858Z,6.70
2019-04-27T07:18:40.636Z,6.07
2019-04-27T07:23:59.802Z,5.33
2019-04-27T07:29:03.780Z,6.17
2019-04-27T07:34:09.193Z,7.70
2019-04-27T07:39:13.192Z,7.77
2019-04-27T07:44:35.248Z,6.47
2019-04-27T07:49:39.184Z,6.50
2019-04-27T07:54:43.047Z,5.50
2019-04-27T07:59:46.863Z,6.33
2019-04-27T08:04:50.669Z,6.17
2019-04-27T08:09:54.421Z,7.33
2019-04-27T08:15:03.041Z,7.17
2019-04-27T08:20:06.864Z,6.93
2019-04-27T08:25:10.653Z,6.70
2019-04-27T08:30:36.597Z,5.77
2019-04-27T08:35:42.381Z,5.70
2019-04-27T08:40:46.074Z,6.20
2019-04-27T08:45:49.871Z,5.80
2019-04-27T08:50:53.584Z,5.70
2019-04-27T08:55:59.058Z,5.60
2019-04-27T09:01:03.193Z,5.47
2019-04-27T09:06:26.390Z,5.30
2019-04-27T09:11:52.485Z,5.50
2019-04-27T09:17:31.009Z,5.47
2019-04-27T09:22:35.014Z,5.40
2019-04-27T09:27:39.482Z,5.40
2019-04-27T09:32:43.272Z,5.73
2019-04-27T09:37:46.975Z,4.87
2019-04-27T09:42:50.766Z,4.60
2019-04-27T09:47:56.177Z,5.40
2019-04-27T09:53:00.251Z,5.47
2019-04-27T09:58:05.670Z,6.40
2019-04-27T10:03:09.661Z,5.60
2019-04-27T10:08:14.508Z,6.07
2019-04-27T10:13:18.454Z,5.73
2019-04-27T10:18:22.271Z,5.67
2019-04-27T10:23:26.160Z,5.20
2019-04-27T10:28:29.978Z,5.10
2019-04-27T10:33:35.760Z,5.10
2019-04-27T10:38:39.375Z,5.57
2019-04-27T10:43:43.297Z,4.63
2019-04-27T10:48:47.135Z,4.00
2019-04-27T10:53:52.180Z,3.20
2019-04-27T10:58:56.030Z,4.10
2019-04-27T11:04:22.028Z,4.33
2019-04-27T11:09:26.395Z,4.67
2019-04-27T11:14:30.444Z,4.40
2019-04-27T11:19:35.731Z,4.40
2019-04-27T11:24:39.895Z,4.00
2019-04-27T11:29:43.737Z,3.50
2019-04-27T11:35:15.605Z,3.33
2019-04-27T11:40:20.178Z,3.40
2019-04-27T11:45:24.084Z,3.67
2019-04-27T11:50:27.990Z,3.20
2019-04-27T11:55:31.974Z,3.20
2019-04-27T12:00:36.442Z,3.80
2019-04-27T12:05:40.351Z,3.30
2019-04-27T12:10:46.425Z,2.90
2019-04-27T12:15:50.275Z,2.77
2019-04-27T12:20:55.865Z,3.40
2019-04-27T12:25:59.855Z,3.53
2019-04-27T12:31:09.024Z,3.00
2019-04-27T12:36:13.086Z,3.00
2019-04-27T12:41:17.390Z,3.07
2019-04-27T12:46:24.146Z,2.80
2019-04-27T12:51:28.179Z,3.53
2019-04-27T12:56:50.194Z,3.47
2019-04-27T13:01:56.229Z,3.43
2019-04-27T13:07:06.618Z,3.30
2019-04-27T13:12:10.547Z,3.50
2019-04-27T13:17:14.322Z,3.07
2019-04-27T13:22:18.279Z,3.30
2019-04-27T13:27:23.104Z,3.67
2019-04-27T13:32:28.387Z,3.53
2019-04-27T13:37:39.068Z,3.40
2019-04-27T13:43:08.223Z,3.20
2019-04-27T13:48:29.773Z,3.87
2019-04-27T13:53:36.364Z,3.57
2019-04-27T13:58:40.399Z,3.20
2019-04-27T14:03:45.180Z,3.20
2019-04-27T14:08:49.114Z,3.27
2019-04-27T14:13:52.975Z,3.03
2019-04-27T14:18:56.807Z,3.30
2019-04-27T14:24:00.547Z,3.50
2019-04-27T14:29:04.358Z,3.10
2019-04-27T14:34:09.129Z,3.67
2019-04-27T14:39:14.114Z,2.97
2019-04-27T14:44:18.714Z,2.80
2019-04-27T14:49:22.767Z,3.50
2019-04-27T14:54:26.584Z,4.23
2019-04-27T14:59:30.462Z,3.80
2019-04-27T15:04:34.243Z,3.40
2019-04-27T15:09:38.219Z,3.53
2019-04-27T15:14:43.523Z,3.07
2019-04-27T15:19:53.876Z,3.43
2019-04-27T15:25:12.455Z,3.40
2019-04-27T15:30:11.140Z,3.37
2019-04-27T15:35:24.981Z,3.97
2019-04-27T15:40:49.339Z,2.80
2019-04-27T15:45:57.738Z,3.07
2019-04-27T15:51:03.040Z,2.80
2019-04-27T15:56:05.129Z,2.97
2019-04-27T16:01:11.598Z,3.43
2019-04-27T16:06:15.090Z,2.60
2019-04-27T16:11:19.787Z,2.43
2019-04-27T16:16:24.446Z,3.97
2019-04-27T16:21:31.529Z,3.60
2019-04-27T16:26:34.796Z,2.80
2019-04-27T16:31:38.652Z,3.13
2019-04-27T16:36:43.574Z,2.80
2019-04-27T16:41:49.998Z,2.43
2019-04-27T16:46:53.618Z,3.13
2019-04-27T16:51:59.062Z,2.63
2019-04-27T16:57:05.370Z,2.57
2019-04-27T17:02:08.692Z,2.53
2019-04-27T17:07:12.472Z,2.87
2019-04-27T17:12:18.036Z,2.50
2019-04-27T17:17:31.945Z,2.70
2019-04-27T17:22:35.735Z,3.13
2019-04-27T17:27:44.533Z,2.47
2019-04-27T17:33:01.507Z,2.33
2019-04-27T17:38:10.406Z,2.37
2019-04-27T17:43:10.659Z,2.60
2019-04-27T17:48:14.456Z,2.90
2019-04-27T17:53:19.909Z,2.30
2019-04-27T17:58:23.606Z,2.50
2019-04-27T18:03:28.489Z,2.30
2019-04-27T18:08:32.378Z,2.30
2019-04-27T18:13:36.315Z,2.03
2019-04-27T18:19:07.970Z,2.30
2019-04-27T18:24:12.536Z,2.70
2019-04-27T18:29:18.317Z,3.37
2019-04-27T18:34:21.714Z,2.90
2019-04-27T18:39:25.626Z,3.17
2019-04-27T18:44:31.915Z,2.93
2019-04-27T18:49:54.132Z,2.90
2019-04-27T18:54:58.063Z,3.00
2019-04-27T19:00:01.842Z,3.00
2019-04-27T19:05:05.766Z,3.00
2019-04-27T19:10:09.547Z,2.63
2019-04-27T19:15:13.439Z,2.93
2019-04-27T19:20:20.270Z,2.67
2019-04-27T19:25:32.212Z,2.87
2019-04-27T19:30:40.836Z,3.10
2019-04-27T19:35:44.718Z,4.00
2019-04-27T19:40:48.632Z,3.60
2019-04-27T19:45:52.658Z,3.63
2019-04-27T19:50:56.466Z,3.30
2019-04-27T19:56:04.154Z,2.87
2019-04-27T20:01:14.536Z,3.40
2019-04-27T20:06:18.808Z,3.13
2019-04-27T20:11:23.134Z,2.70
2019-04-27T20:16:27.049Z,3.50
2019-04-27T20:21:31.001Z,2.80
2019-04-27T20:26:34.790Z,3.10
2019-04-27T20:31:38.680Z,3.27
2019-04-27T20:36:44.388Z,3.10
2019-04-27T20:41:48.214Z,3.50
2019-04-27T20:46:52.288Z,3.87
2019-04-27T20:52:11.189Z,3.60
2019-04-27T20:57:15.151Z,3.17
2019-04-27T21:02:52.008Z,4.10
2019-04-27T21:08:01.347Z,3.70
2019-04-27T21:13:05.491Z,4.00
2019-04-27T21:18:09.228Z,3.33
2019-04-27T21:23:12.995Z,3.27
2019-04-27T21:28:19.051Z,4.47
2019-04-27T21:33:22.585Z,4.10
2019-04-27T21:38:26.756Z,4.80
2019-04-27T21:43:51.221Z,4.03
2019-04-27T21:48:55.193Z,4.27
2019-04-27T21:54:17.948Z,4.23
2019-04-27T21:59:25.448Z,3.90
2019-04-27T22:04:31.370Z,4.40
2019-04-27T22:09:34.965Z,4.60
2019-04-27T22:14:39.037Z,4.07
2019-04-27T22:19:43.061Z,4.63
2019-04-27T22:24:46.848Z,4.20
2019-04-27T22:29:50.811Z,4.60
2019-04-27T22:34:57.588Z,4.47
2019-04-27T22:40:38.974Z,4.33
2019-04-27T22:45:44.345Z,3.77
2019-04-27T22:50:48.377Z,3.77
2019-04-27T22:56:11.183Z,4.03
2019-04-27T23:01:30.130Z,3.80
2019-04-27T23:06:33.914Z,3.83
2019-04-27T23:11:37.766Z,3.83
2019-04-27T23:16:43.414Z,3.80
2019-04-27T23:21:48.361Z,4.17
2019-04-27T23:26:52.188Z,3.87
2019-04-27T23:32:02.342Z,4.63
2019-04-27T23:37:06.120Z,4.60
2019-04-27T23:42:11.553Z,4.40
2019-04-27T23:47:15.260Z,5.13
2019-04-27T23:52:23.841Z,4.87
2019-04-27T23:57:27.573Z,4.90
